createdAt,value
2022-11-02T00:02:10.778Z,95664.28
2022-11-02T00:04:37.400Z,95663.94
2022-11-02T00:07:04.041Z,95666.03
2022-11-02T00:09:30.662Z,95652.75
2022-11-02T00:11:57.230Z,95664.75
2022-11-02T00:14:23.785Z,95665.41
2022-11-02T00:16:50.673Z,95664.81
2022-11-02T00:19:17.522Z,95660.03
2022-11-02T00:21:44.329Z,95661.09
2022-11-02T00:24:12.414Z,95659.34
2022-11-02T00:26:39.056Z,95666.59
2022-11-02T00:29:06.361Z,95668.94
2022-11-02T00:31:32.939Z,95670.09
2022-11-02T00:33:59.546Z,95670.81
2022-11-02T00:36:26.427Z,95675.84
2022-11-02T00:38:52.993Z,95676.31
2022-11-02T00:41:20.612Z,95671.75
2022-11-02T00:43:47.408Z,95666.03
2022-11-02T00:46:14.551Z,95679.22
2022-11-02T00:48:41.859Z,95679.00
2022-11-02T00:51:09.337Z,95682.84
2022-11-02T00:53:35.954Z,95686.13
2022-11-02T00:56:02.581Z,95681.31
2022-11-02T00:58:29.437Z,95691.47
2022-11-02T01:00:56.592Z,95689.91
2022-11-02T01:03:23.386Z,95696.50
2022-11-02T01:05:50.005Z,95700.56
2022-11-02T01:08:16.570Z,95698.25
2022-11-02T01:10:45.633Z,95701.50
2022-11-02T01:13:16.650Z,95703.13
2022-11-02T01:15:43.229Z,95702.22
2022-11-02T01:18:09.835Z,95705.69
2022-11-02T01:20:36.413Z,95705.59
2022-11-02T01:23:02.973Z,95701.72
2022-11-02T01:25:29.519Z,95706.03
2022-11-02T01:27:56.422Z,95707.06
2022-11-02T01:30:22.977Z,95708.59
2022-11-02T01:32:49.548Z,95709.31
2022-11-02T01:35:16.798Z,95714.31
2022-11-02T01:37:43.506Z,95717.91
2022-11-02T01:40:10.747Z,95713.00
2022-11-02T01:42:37.415Z,95711.16
2022-11-02T01:45:04.272Z,95709.25
2022-11-02T01:47:40.629Z,95710.34
2022-11-02T01:50:19.173Z,95704.97
2022-11-02T01:52:45.813Z,95714.94
2022-11-02T01:55:20.432Z,95705.75
2022-11-02T01:57:52.538Z,95705.63
2022-11-02T02:00:20.492Z,95707.13
2022-11-02T02:03:01.140Z,95714.59
2022-11-02T02:05:29.688Z,95713.63
2022-11-02T02:07:56.924Z,95711.91
2022-11-02T02:10:23.564Z,95715.78
2022-11-02T02:12:50.539Z,95718.09
2022-11-02T02:15:23.280Z,95723.00
2022-11-02T02:17:52.853Z,95718.97
2022-11-02T02:20:51.381Z,95720.72
2022-11-02T02:23:35.269Z,95725.47
2022-11-02T02:26:20.585Z,95729.22
2022-11-02T02:29:08.435Z,95723.97
2022-11-02T02:31:43.004Z,95722.91
2022-11-02T02:34:14.101Z,95732.72
2022-11-02T02:36:51.668Z,95732.16
2022-11-02T02:39:36.290Z,95721.63
2022-11-02T02:42:13.777Z,95730.63
2022-11-02T02:44:46.078Z,95735.31
2022-11-02T02:47:17.493Z,95726.41
2022-11-02T02:49:52.614Z,95732.81
2022-11-02T02:52:21.783Z,95739.69
2022-11-02T02:54:52.187Z,95744.94
2022-11-02T02:57:24.391Z,95745.53
2022-11-02T02:59:51.200Z,95748.59
2022-11-02T03:02:25.473Z,95755.59
2022-11-02T03:04:52.859Z,95757.34
2022-11-02T03:07:34.035Z,95752.91
2022-11-02T03:10:09.308Z,95745.66
2022-11-02T03:12:48.104Z,95748.09
2022-11-02T03:15:34.677Z,95745.22
2022-11-02T03:18:23.970Z,95746.63
2022-11-02T03:20:58.981Z,95750.03
2022-11-02T03:23:35.618Z,95751.63
2022-11-02T03:26:09.087Z,95747.09
2022-11-02T03:29:04.756Z,95748.16
2022-11-02T03:31:43.213Z,95749.19
2022-11-02T03:34:23.054Z,95757.81
2022-11-02T03:37:06.609Z,95761.09
2022-11-02T03:39:38.350Z,95761.22
2022-11-02T03:42:07.114Z,95770.66
2022-11-02T03:44:39.702Z,95773.94
2022-11-02T03:47:12.923Z,95766.47
2022-11-02T03:49:42.856Z,95773.72
2022-11-02T03:52:14.759Z,95769.59
2022-11-02T03:54:53.732Z,95771.59
2022-11-02T03:57:26.959Z,95773.44
2022-11-02T03:59:53.582Z,95762.59
2022-11-02T04:02:20.280Z,95766.66
2022-11-02T04:04:52.128Z,95768.75
2022-11-02T04:07:27.282Z,95766.53
2022-11-02T04:09:53.865Z,95775.28
2022-11-02T04:12:39.577Z,95767.59
2022-11-02T04:15:07.645Z,95768.22
2022-11-02T04:17:53.118Z,95766.75
2022-11-02T04:20:19.702Z,95756.22
2022-11-02T04:23:05.518Z,95762.03
2022-11-02T04:25:32.186Z,95757.81
2022-11-02T04:28:14.430Z,95755.94
2022-11-02T04:30:48.213Z,95753.91
2022-11-02T04:33:34.439Z,95753.59
2022-11-02T04:36:15.788Z,95756.16
2022-11-02T04:38:44.784Z,95750.69
2022-11-02T04:41:43.661Z,95759.59
2022-11-02T04:44:16.971Z,95762.31
2022-11-02T04:46:51.774Z,95760.22
2022-11-02T04:49:19.167Z,95761.84
2022-11-02T04:51:49.727Z,95756.59
2022-11-02T04:54:18.614Z,95760.59
2022-11-02T04:56:47.873Z,95760.22
2022-11-02T04:59:15.830Z,95759.53
2022-11-02T05:01:42.901Z,95769.94
2022-11-02T05:04:10.296Z,95767.16
2022-11-02T05:06:37.304Z,95764.13
2022-11-02T05:09:04.353Z,95761.78
2022-11-02T05:11:32.706Z,95758.88
2022-11-02T05:13:59.998Z,95761.22
2022-11-02T05:16:28.464Z,95759.84
2022-11-02T05:18:55.086Z,95761.47
2022-11-02T05:21:23.237Z,95759.00
2022-11-02T05:23:51.074Z,95758.22
2022-11-02T05:26:18.006Z,95755.19
2022-11-02T05:28:47.650Z,95753.50
2022-11-02T05:31:14.318Z,95755.63
2022-11-02T05:33:40.921Z,95754.69
2022-11-02T05:36:12.834Z,95759.00
2022-11-02T05:38:42.849Z,95750.59
2022-11-02T05:41:09.945Z,95753.03
2022-11-02T05:43:38.968Z,95754.78
2022-11-02T05:46:07.717Z,95757.13
2022-11-02T05:48:34.367Z,95758.63
2022-11-02T05:51:03.860Z,95759.84
2022-11-02T05:53:32.538Z,95764.88
2022-11-02T05:56:00.272Z,95766.84
2022-11-02T05:58:28.060Z,95769.16
2022-11-02T06:00:54.750Z,95766.59
2022-11-02T06:03:21.321Z,95777.56
2022-11-02T06:05:47.972Z,95764.84
2022-11-02T06:08:14.561Z,95775.38
2022-11-02T06:10:43.236Z,95781.56
2022-11-02T06:13:10.260Z,95783.19
2022-11-02T06:15:36.871Z,95781.44
2022-11-02T06:18:03.537Z,95790.44
2022-11-02T06:20:30.101Z,95785.44
2022-11-02T06:22:56.895Z,95787.16
2022-11-02T06:25:23.502Z,95794.31
2022-11-02T06:27:53.018Z,95793.63
2022-11-02T06:30:20.105Z,95798.75
2022-11-02T06:32:48.264Z,95798.06
2022-11-02T06:35:15.953Z,95798.44
2022-11-02T06:37:42.780Z,95812.31
2022-11-02T06:40:10.729Z,95811.16
2022-11-02T06:42:44.831Z,95808.72
2022-11-02T06:45:17.398Z,95819.53
2022-11-02T06:47:43.991Z,95813.94
2022-11-02T06:50:10.736Z,95824.72
2022-11-02T06:52:43.243Z,95815.50
2022-11-02T06:55:09.921Z,95814.44
2022-11-02T06:57:37.699Z,95813.28
2022-11-02T07:00:06.685Z,95816.44
2022-11-02T07:02:33.511Z,95820.53
2022-11-02T07:05:00.160Z,95817.22
2022-11-02T07:07:26.783Z,95818.22
2022-11-02T07:09:53.326Z,95822.75
2022-11-02T07:12:23.064Z,95823.69
2022-11-02T07:14:50.033Z,95836.41
2022-11-02T07:17:16.572Z,95832.91
2022-11-02T07:19:43.129Z,95833.34
2022-11-02T07:22:10.290Z,95832.72
2022-11-02T07:24:36.852Z,95832.06
2022-11-02T07:27:03.517Z,95828.63
2022-11-02T07:29:30.072Z,95837.25
2022-11-02T07:31:56.723Z,95843.78
2022-11-02T07:34:23.378Z,95848.25
2022-11-02T07:36:49.962Z,95855.41
2022-11-02T07:39:17.755Z,95856.34
2022-11-02T07:41:49.338Z,95855.34
2022-11-02T07:44:18.257Z,95857.59
2022-11-02T07:46:53.797Z,95857.84
2022-11-02T07:49:21.597Z,95860.28
2022-11-02T07:51:48.898Z,95860.59
2022-11-02T07:54:15.500Z,95856.28
2022-11-02T07:56:43.942Z,95850.69
2022-11-02T07:59:11.147Z,95853.56
2022-11-02T08:01:37.740Z,95853.53
2022-11-02T08:04:04.555Z,95850.53
2022-11-02T08:06:31.167Z,95850.41
2022-11-02T08:08:57.756Z,95856.00
2022-11-02T08:11:24.318Z,95854.09
2022-11-02T08:13:50.926Z,95854.50
2022-11-02T08:16:17.524Z,95854.94
2022-11-02T08:18:44.089Z,95855.50
2022-11-02T08:21:10.651Z,95860.50
2022-11-02T08:23:37.226Z,95858.88
2022-11-02T08:26:03.809Z,95870.22
2022-11-02T08:28:32.182Z,95873.34
2022-11-02T08:30:59.447Z,95869.69
2022-11-02T08:33:26.221Z,95876.00
2022-11-02T08:35:53.646Z,95869.59
2022-11-02T08:38:23.546Z,95871.75
2022-11-02T08:40:50.120Z,95870.00
2022-11-02T08:43:16.686Z,95870.75
2022-11-02T08:48:32.100Z,95867.81
2022-11-02T08:50:58.819Z,95870.97
2022-11-02T08:53:25.371Z,95870.06
2022-11-02T08:55:51.934Z,95879.72
2022-11-02T08:58:18.597Z,95872.31
2022-11-02T09:00:45.477Z,95878.97
2022-11-02T09:03:14.221Z,95875.34
2022-11-02T09:05:45.668Z,95875.41
2022-11-02T09:08:19.247Z,95877.34
2022-11-02T09:10:51.825Z,95877.19
2022-11-02T09:13:22.075Z,95883.34
2022-11-02T09:15:56.737Z,95874.50
2022-11-02T09:18:23.865Z,95878.66
2022-11-02T09:20:51.491Z,95881.09
2022-11-02T09:23:20.339Z,95884.47
2022-11-02T09:25:47.829Z,95880.66
2022-11-02T09:28:15.657Z,95882.09
2022-11-02T09:30:42.934Z,95884.53
2022-11-02T09:33:09.934Z,95885.34
2022-11-02T09:35:42.635Z,95882.59
2022-11-02T09:38:09.195Z,95897.22
2022-11-02T09:40:45.989Z,95893.06
2022-11-02T09:43:49.487Z,95894.47
2022-11-02T09:46:19.858Z,95893.47
2022-11-02T09:48:52.692Z,95900.97
2022-11-02T09:51:23.401Z,95908.63
2022-11-02T09:54:17.642Z,95902.75
2022-11-02T09:56:45.938Z,95904.81
2022-11-02T09:59:26.149Z,95911.75
2022-11-02T10:02:04.756Z,95910.84
2022-11-02T10:04:49.309Z,95917.91
2022-11-02T10:07:53.235Z,95908.88
2022-11-02T10:10:22.783Z,95916.66
2022-11-02T10:13:22.480Z,95911.91
2022-11-02T10:16:00.309Z,95914.06
2022-11-02T10:18:29.887Z,95915.81
2022-11-02T10:20:59.385Z,95911.00
2022-11-02T10:23:38.029Z,95907.25
2022-11-02T10:26:04.763Z,95902.03
2022-11-02T10:28:36.373Z,95905.72
2022-11-02T10:31:03.607Z,95905.28
2022-11-02T10:33:31.925Z,95906.72
2022-11-02T10:36:17.394Z,95908.25
2022-11-02T10:39:01.450Z,95912.16
2022-11-02T10:41:54.534Z,95903.56
2022-11-02T10:45:30.589Z,95908.94
2022-11-02T10:48:15.422Z,95906.72
2022-11-02T10:50:48.909Z,95906.28
2022-11-02T10:53:40.067Z,95908.28
2022-11-02T10:56:21.756Z,95903.13
2022-11-02T10:59:09.168Z,95904.94
2022-11-02T11:01:36.103Z,95902.19
2022-11-02T11:04:05.354Z,95901.28
2022-11-02T11:06:37.674Z,95891.66
2022-11-02T11:09:06.050Z,95898.34
2022-11-02T11:11:38.253Z,95897.25
2022-11-02T11:20:25.966Z,95898.28
2022-11-02T11:23:23.402Z,95902.59
2022-11-02T11:26:13.996Z,95895.75
2022-11-02T11:28:53.499Z,95900.19
2022-11-02T11:31:20.852Z,95898.69
2022-11-02T11:33:50.935Z,95894.16
2022-11-02T11:36:35.560Z,95897.09
2022-11-02T11:39:21.781Z,95885.41
2022-11-02T11:41:48.471Z,95885.03
2022-11-02T11:44:16.078Z,95891.13
2022-11-02T11:46:46.624Z,95896.97
2022-11-02T11:52:29.916Z,95882.75
2022-11-02T11:55:22.475Z,95896.41
2022-11-02T11:58:07.857Z,95890.31
2022-11-02T12:00:34.779Z,95891.38
2022-11-02T12:03:07.669Z,95894.16
2022-11-02T12:05:41.491Z,95888.81
2022-11-02T12:08:23.272Z,95882.53
2022-11-02T12:10:58.948Z,95888.88
2022-11-02T12:14:02.220Z,95884.06
2022-11-02T12:16:51.301Z,95881.66
2022-11-02T12:19:33.868Z,95878.31
2022-11-02T12:22:27.010Z,95873.94
2022-11-02T12:25:27.736Z,95866.69
2022-11-02T12:28:03.425Z,95862.75
2022-11-02T12:31:00.143Z,95861.84
2022-11-02T12:33:40.771Z,95858.38
2022-11-02T12:36:26.248Z,95861.50
2022-11-02T12:38:53.521Z,95864.50
2022-11-02T12:41:29.472Z,95864.00
2022-11-02T12:44:11.657Z,95864.09
2022-11-02T12:47:10.052Z,95854.91
2022-11-02T12:50:15.662Z,95843.25
2022-11-02T12:53:17.442Z,95840.59
2022-11-02T12:55:49.050Z,95840.47
2022-11-02T12:58:21.822Z,95833.34
2022-11-02T13:00:55.091Z,95834.28
2022-11-02T13:03:57.981Z,95833.25
2022-11-02T13:06:34.087Z,95842.03
2022-11-02T13:09:18.495Z,95830.41
2022-11-02T13:11:54.405Z,95828.06
2022-11-02T13:14:22.830Z,95829.34
2022-11-02T13:16:55.885Z,95825.38
2022-11-02T13:19:29.150Z,95831.47
2022-11-02T13:21:57.994Z,95832.03
2022-11-02T13:24:33.696Z,95832.75
2022-11-02T13:27:21.736Z,95828.16
2022-11-02T13:29:57.616Z,95836.41
2022-11-02T13:32:36.680Z,95831.84
2022-11-02T13:35:14.153Z,95821.09
2022-11-02T13:37:46.902Z,95814.38
2022-11-02T13:40:38.128Z,95819.31
2022-11-02T13:43:35.029Z,95816.06
2022-11-02T13:46:23.338Z,95815.69
2022-11-02T13:48:59.197Z,95812.00
2022-11-02T13:51:42.804Z,95815.88
2022-11-02T13:54:19.474Z,95815.22
2022-11-02T13:56:51.540Z,95814.22
2022-11-02T13:59:31.912Z,95810.00
2022-11-02T14:02:02.682Z,95816.28
2022-11-02T14:04:38.423Z,95811.97
2022-11-02T14:07:09.204Z,95819.31
2022-11-02T14:09:40.628Z,95816.13
2022-11-02T14:12:22.376Z,95818.72
2022-11-02T14:15:13.988Z,95820.22
2022-11-02T14:17:56.383Z,95815.47
2022-11-02T14:20:39.659Z,95807.31
2022-11-02T14:23:26.463Z,95810.56
2022-11-02T14:25:55.310Z,95818.28
2022-11-02T14:28:22.063Z,95815.97
2022-11-02T14:30:49.221Z,95805.31
2022-11-02T14:33:29.604Z,95805.00
2022-11-02T14:36:02.254Z,95808.28
2022-11-02T14:39:06.252Z,95808.28
2022-11-02T14:42:16.363Z,95808.50
2022-11-02T14:44:45.950Z,95800.22
2022-11-02T14:47:18.529Z,95798.22
2022-11-02T14:49:56.411Z,95794.06
2022-11-02T14:52:33.723Z,95800.38
2022-11-02T14:55:02.338Z,95803.59
2022-11-02T14:57:42.581Z,95800.06
2022-11-02T15:00:21.438Z,95795.03
2022-11-02T15:02:49.328Z,95798.53
2022-11-02T15:05:38.571Z,95789.56
2022-11-02T15:08:08.865Z,95790.03
2022-11-02T15:10:39.894Z,95787.44
2022-11-02T15:13:34.176Z,95781.06
2022-11-02T15:16:00.667Z,95778.88
2022-11-02T15:18:30.177Z,95779.03
2022-11-02T15:21:26.872Z,95785.72
2022-11-02T15:24:02.759Z,95780.78
2022-11-02T15:26:41.618Z,95784.00
2022-11-02T15:29:30.456Z,95784.03
2022-11-02T15:31:58.315Z,95780.09
2022-11-02T15:34:33.449Z,95780.25
2022-11-02T15:37:00.706Z,95779.66
2022-11-02T15:39:27.736Z,95783.59
2022-11-02T15:42:03.832Z,95786.31
2022-11-02T15:44:50.492Z,95786.44
2022-11-02T15:47:36.915Z,95781.78
2022-11-02T15:50:19.999Z,95785.13
2022-11-02T15:53:22.199Z,95783.28
2022-11-02T15:56:07.160Z,95774.94
2022-11-02T15:58:52.047Z,95784.94
2022-11-02T16:01:26.999Z,95780.81
2022-11-02T16:03:58.784Z,95784.38
2022-11-02T16:06:29.575Z,95799.50
2022-11-02T16:09:01.476Z,95790.22
2022-11-02T16:11:28.847Z,95784.44
2022-11-02T16:14:16.199Z,95786.47
2022-11-02T16:16:48.157Z,95785.13
2022-11-02T16:19:21.944Z,95782.25
2022-11-02T16:21:49.502Z,95781.22
2022-11-02T16:24:16.908Z,95788.63
2022-11-02T16:26:45.265Z,95788.97
2022-11-02T16:29:19.360Z,95789.72
2022-11-02T16:31:45.956Z,95784.47
2022-11-02T16:34:18.687Z,95781.22
2022-11-02T16:36:46.202Z,95783.31
2022-11-02T16:39:21.507Z,95785.09
2022-11-02T16:41:55.764Z,95792.47
2022-11-02T16:44:26.536Z,95783.19
2022-11-02T16:47:08.442Z,95788.13
2022-11-02T16:49:56.395Z,95785.44
2022-11-02T16:52:27.510Z,95789.28
2022-11-02T16:54:54.094Z,95786.59
2022-11-02T16:57:33.940Z,95791.50
2022-11-02T17:00:05.039Z,95783.19
2022-11-02T17:02:41.652Z,95789.84
2022-11-02T17:05:27.153Z,95789.47
2022-11-02T17:08:08.367Z,95789.00
2022-11-02T17:10:37.670Z,95798.13
2022-11-02T17:13:09.153Z,95791.56
2022-11-02T17:15:37.469Z,95789.00
2022-11-02T17:18:10.050Z,95785.84
2022-11-02T17:20:38.470Z,95787.47
2022-11-02T17:23:08.068Z,95781.28
2022-11-02T17:25:37.357Z,95795.13
2022-11-02T17:28:38.826Z,95798.44
2022-11-02T17:31:17.911Z,95797.38
2022-11-02T17:33:44.780Z,95798.28
2022-11-02T17:36:11.601Z,95796.88
2022-11-02T17:38:38.677Z,95796.28
2022-11-02T17:41:28.342Z,95795.50
2022-11-02T17:43:54.880Z,95794.16
2022-11-02T17:46:21.473Z,95795.31
2022-11-02T17:48:48.099Z,95798.38
2022-11-02T17:51:15.399Z,95794.25
2022-11-02T17:53:42.455Z,95789.38
2022-11-02T17:56:11.059Z,95793.31
2022-11-02T17:58:37.733Z,95788.72
2022-11-02T18:01:05.303Z,95803.47
2022-11-02T18:03:32.002Z,95795.00
2022-11-02T18:06:00.304Z,95791.47
2022-11-02T18:08:27.496Z,95789.41
2022-11-02T18:10:54.591Z,95785.41
2022-11-02T18:13:23.408Z,95781.75
2022-11-02T18:15:50.355Z,95780.09
2022-11-02T18:18:17.001Z,95770.16
2022-11-02T18:20:43.573Z,95769.25
2022-11-02T18:23:16.572Z,95767.69
2022-11-02T18:25:43.383Z,95757.44
2022-11-02T18:28:10.040Z,95758.22
2022-11-02T18:30:36.596Z,95756.81
2022-11-02T18:33:03.210Z,95759.47
2022-11-02T18:35:29.789Z,95752.63
2022-11-02T18:37:56.815Z,95756.19
2022-11-02T18:40:23.513Z,95750.09
2022-11-02T18:42:50.304Z,95746.22
2022-11-02T18:45:18.480Z,95726.84
2022-11-02T18:47:45.190Z,95734.84
2022-11-02T18:50:13.480Z,95734.63
2022-11-02T18:52:41.824Z,95732.19
2022-11-02T18:55:08.664Z,95731.56
2022-11-02T18:57:35.240Z,95720.72
2022-11-02T19:00:02.856Z,95721.63
2022-11-02T19:02:30.001Z,95715.81
2022-11-02T19:04:56.729Z,95712.31
2022-11-02T19:07:42.120Z,95709.97
2022-11-02T19:10:09.822Z,95694.09
2022-11-02T19:12:36.724Z,95694.28
2022-11-02T19:15:03.834Z,95699.81
2022-11-02T19:17:30.491Z,95694.69
2022-11-02T19:19:57.436Z,95690.81
2022-11-02T19:22:26.136Z,95688.91
2022-11-02T19:24:53.072Z,95682.78
2022-11-02T19:27:22.260Z,95687.19
2022-11-02T19:29:49.028Z,95675.72
2022-11-02T19:32:16.084Z,95683.28
2022-11-02T19:34:43.077Z,95683.06
2022-11-02T19:37:10.015Z,95673.66
2022-11-02T19:39:36.796Z,95671.31
2022-11-02T19:42:03.569Z,95663.72
2022-11-02T19:44:30.782Z,95665.38
2022-11-02T19:46:57.530Z,95658.09
2022-11-02T19:49:27.118Z,95660.84
2022-11-02T19:51:53.836Z,95655.13
2022-11-02T19:54:20.617Z,95650.41
2022-11-02T19:56:47.187Z,95660.16
2022-11-02T19:59:13.786Z,95656.38
2022-11-02T20:01:45.071Z,95658.25
2022-11-02T20:04:11.740Z,95656.00
2022-11-02T20:06:40.846Z,95650.53
2022-11-02T20:09:14.634Z,95648.50
2022-11-02T20:11:45.156Z,95644.94
2022-11-02T20:14:13.310Z,95648.41
2022-11-02T20:16:40.150Z,95656.06
2022-11-02T20:19:07.236Z,95648.13
2022-11-02T20:21:38.290Z,95649.13
2022-11-02T20:24:08.241Z,95641.13
2022-11-02T20:26:36.678Z,95640.53
2022-11-02T20:29:04.880Z,95641.13
2022-11-02T20:31:39.210Z,95639.81
2022-11-02T20:34:08.174Z,95640.53
2022-11-02T20:36:34.964Z,95635.41
2022-11-02T20:39:04.584Z,95635.91
2022-11-02T20:41:31.278Z,95627.53
2022-11-02T20:43:57.875Z,95630.31
2022-11-02T20:46:42.917Z,95627.41
2022-11-02T20:49:22.859Z,95633.03
2022-11-02T20:51:58.180Z,95628.25
2022-11-02T20:54:26.148Z,95632.84
2022-11-02T20:56:52.763Z,95625.41
2022-11-02T20:59:19.366Z,95621.91
2022-11-02T21:01:46.220Z,95632.53
2022-11-02T21:04:18.618Z,95631.53
2022-11-02T21:06:47.090Z,95634.69
2022-11-02T21:09:13.692Z,95628.66
2022-11-02T21:11:58.879Z,95626.09
2022-11-02T21:14:25.460Z,95625.19
2022-11-02T21:16:52.078Z,95624.16
2022-11-02T21:19:18.631Z,95622.31
2022-11-02T21:21:45.260Z,95627.25
2022-11-02T21:24:12.130Z,95621.69
2022-11-02T21:26:38.675Z,95624.16
2022-11-02T21:29:05.325Z,95618.41
2022-11-02T21:31:31.902Z,95616.88
2022-11-02T21:33:58.522Z,95617.69
2022-11-02T21:36:25.173Z,95617.81
2022-11-02T21:38:51.736Z,95616.66
2022-11-02T21:41:26.484Z,95612.97
2022-11-02T21:43:55.418Z,95609.69
2022-11-02T21:46:22.381Z,95613.25
2022-11-02T21:48:49.014Z,95602.81
2022-11-02T21:51:18.793Z,95601.47
2022-11-02T21:53:47.456Z,95596.75
2022-11-02T21:56:19.262Z,95598.38
2022-11-02T21:58:46.675Z,95602.16
2022-11-02T22:01:35.778Z,95599.09
2022-11-02T22:04:03.245Z,95598.97
2022-11-02T22:06:31.694Z,95589.34
2022-11-02T22:08:59.965Z,95590.56
2022-11-02T22:11:27.553Z,95589.75
2022-11-02T22:13:58.692Z,95586.19
2022-11-02T22:16:34.855Z,95584.94
2022-11-02T22:19:06.556Z,95588.28
2022-11-02T22:21:36.296Z,95597.00
2022-11-02T22:24:03.500Z,95587.50
2022-11-02T22:26:31.092Z,95581.28
2022-11-02T22:28:58.017Z,95582.56
2022-11-02T22:31:27.069Z,95577.66
2022-11-02T22:33:55.673Z,95581.22
2022-11-02T22:36:24.985Z,95581.34
2022-11-02T22:38:53.543Z,95578.97
2022-11-02T22:41:23.203Z,95576.50
2022-11-02T22:43:58.417Z,95569.56
2022-11-02T22:46:27.142Z,95569.88
2022-11-02T22:48:55.866Z,95567.50
2022-11-02T22:51:25.071Z,95569.94
2022-11-02T22:53:52.474Z,95571.88
2022-11-02T22:56:21.088Z,95567.31
2022-11-02T22:58:48.835Z,95564.22
2022-11-02T23:01:20.879Z,95562.38
2022-11-02T23:03:48.600Z,95564.13
2022-11-02T23:06:16.300Z,95561.50
2022-11-02T23:08:48.394Z,95564.03
2022-11-02T23:11:23.442Z,95559.94
2022-11-02T23:13:57.415Z,95550.94
2022-11-02T23:16:29.177Z,95551.75
2022-11-02T23:19:20.412Z,95551.66
2022-11-02T23:22:28.432Z,95545.00
2022-11-02T23:25:13.712Z,95547.56
2022-11-02T23:28:12.510Z,95545.94
2022-11-02T23:30:58.289Z,95541.63
2022-11-02T23:33:29.793Z,95544.59
2022-11-02T23:36:12.285Z,95545.69
2022-11-02T23:38:58.752Z,95551.69
2022-11-02T23:41:25.954Z,95533.66
2022-11-02T23:44:11.215Z,95534.50
2022-11-02T23:46:38.962Z,95536.38
2022-11-02T23:49:05.565Z,95524.44
2022-11-02T23:51:50.630Z,95516.78
2022-11-02T23:54:36.135Z,95510.56
2022-11-02T23:57:02.753Z,95505.63
2022-11-02T23:59:29.383Z,95502.16
